Time;durP1;ratioP1;P1;durP2;ratioP2;P2;SDS_P1;SDS_P2;PMS_P1;PMS_P2;Temp;Humidity;BMP_temperature;BMP_pressure;BME280_temperature;BME280_humidity;BME280_pressure;Samples;Min_cycle;Max_cycle;Signal;HPM_P1;HPM_P2
2022/12/11 00:00:29;;;;;;;8.82;6.75;;;-2.20;99.90;;;;;;4952760;29;20051;-70
2022/12/11 00:02:57;;;;;;;11.32;6.75;;;-2.20;99.90;;;;;;4952580;29;20102;-71
2022/12/11 00:05:24;;;;;;;10.38;6.97;;;-2.20;99.90;;;;;;4952667;29;20055;-69
2022/12/11 00:07:53;;;;;;;9.13;6.53;;;-2.10;99.90;;;;;;4962516;28;20063;-70
2022/12/11 00:10:20;;;;;;;11.60;7.07;;;-2.10;99.90;;;;;;4933529;29;20107;-71
2022/12/11 00:12:48;;;;;;;13.32;7.43;;;-2.20;99.90;;;;;;4933658;29;20047;-70
2022/12/11 00:15:15;;;;;;;10.10;6.63;;;-2.20;99.90;;;;;;4933707;29;20055;-71
2022/12/11 00:17:43;;;;;;;9.57;6.90;;;-2.20;99.90;;;;;;4952407;29;20075;-70
2022/12/11 00:20:11;;;;;;;11.65;7.18;;;-2.10;99.90;;;;;;4952643;29;20043;-71
2022/12/11 00:22:41;;;;;;;10.43;6.90;;;-2.10;99.90;;;;;;4953050;28;20086;-70
2022/12/11 00:25:10;;;;;;;11.23;6.97;;;-2.10;99.90;;;;;;4933108;29;20054;-77
2022/12/11 00:27:38;;;;;;;8.82;6.47;;;-2.10;99.90;;;;;;4956099;29;20061;-76
2022/12/11 00:30:07;;;;;;;9.80;7.03;;;-2.10;99.90;;;;;;4956212;29;20404;-76
2022/12/11 00:32:35;;;;;;;9.52;6.53;;;-2.00;99.90;;;;;;4956042;29;20055;-76
2022/12/11 00:35:02;;;;;;;11.00;6.80;;;-2.00;99.90;;;;;;4953460;29;20047;-76
2022/12/11 00:37:31;;;;;;;10.98;7.68;;;-2.00;99.90;;;;;;4955965;29;20057;-76
2022/12/11 00:39:58;;;;;;;8.77;6.85;;;-2.00;99.90;;;;;;4941865;28;20083;-77
2022/12/11 00:42:27;;;;;;;13.32;6.63;;;-2.00;99.90;;;;;;4940958;29;20058;-76
2022/12/11 00:44:55;;;;;;;8.90;6.53;;;-2.10;99.90;;;;;;4954881;29;20475;-76
2022/12/11 00:47:22;;;;;;;9.80;6.50;;;-2.10;99.90;;;;;;4938641;29;20520;-76
2022/12/11 00:49:50;;;;;;;8.95;7.10;;;-2.10;99.90;;;;;;4934608;29;20061;-76
2022/12/11 00:52:17;;;;;;;11.40;6.55;;;-2.10;99.90;;;;;;4940574;29;20043;-76
2022/12/11 00:54:45;;;;;;;7.03;6.13;;;-2.00;99.90;;;;;;4938548;29;20499;-75
2022/12/11 00:57:12;;;;;;;9.88;6.50;;;-2.10;99.90;;;;;;4970457;28;20074;-76
2022/12/11 00:59:41;;;;;;;9.77;6.50;;;-2.00;99.90;;;;;;4970508;28;20050;-76
2022/12/11 01:02:09;;;;;;;8.85;6.38;;;-2.00;99.90;;;;;;4954395;29;20073;-75
2022/12/11 01:04:36;;;;;;;10.90;7.28;;;-2.00;99.90;;;;;;4954291;29;20051;-76
2022/12/11 01:07:04;;;;;;;9.32;6.72;;;-1.90;99.90;;;;;;4938449;29;20305;-77
2022/12/11 01:12:16;;;;;;;9.55;6.45;;;-1.90;99.90;;;;;;4938371;29;20142;-76
2022/12/11 01:14:45;;;;;;;8.25;6.40;;;-1.80;99.90;;;;;;4955429;29;20078;-76
2022/12/11 01:17:13;;;;;;;8.65;6.25;;;-1.80;99.90;;;;;;4938015;29;20043;-76
2022/12/11 01:19:40;;;;;;;10.20;6.53;;;-1.80;99.90;;;;;;4936693;29;20106;-77
2022/12/11 01:22:08;;;;;;;8.98;6.07;;;-1.90;99.90;;;;;;4955903;29;20051;-71
2022/12/11 01:24:35;;;;;;;8.25;6.47;;;-1.90;99.90;;;;;;4955118;29;20659;-69
2022/12/11 01:27:04;;;;;;;8.15;6.40;;;-2.00;99.90;;;;;;4954413;29;20142;-75
2022/12/11 01:29:32;;;;;;;8.82;6.32;;;-2.20;99.90;;;;;;4917447;29;20055;-75
2022/12/11 01:32:01;;;;;;;9.55;6.18;;;-2.30;99.90;;;;;;4917786;29;20059;-75
2022/12/11 01:34:30;;;;;;;8.77;6.55;;;-2.40;99.90;;;;;;4916393;29;20048;-77
2022/12/11 01:36:57;;;;;;;9.23;6.45;;;-2.50;99.90;;;;;;4922010;29;20058;-77
2022/12/11 01:39:25;;;;;;;9.05;6.63;;;-2.60;99.90;;;;;;4926295;29;20161;-77
2022/12/11 01:41:58;;;;;;;14.55;6.75;;;-2.70;99.90;;;;;;4917552;29;20462;-76
2022/12/11 01:45:23;;;;;;;8.95;6.38;;;-2.80;99.90;;;;;;4917440;29;20083;-76
2022/12/11 01:47:57;;;;;;;8.65;6.32;;;-2.80;99.90;;;;;;4917124;29;20052;-77
2022/12/11 01:50:25;;;;;;;9.45;6.82;;;-2.90;99.90;;;;;;4916806;29;20131;-76
2022/12/11 01:52:52;;;;;;;9.13;7.07;;;-2.90;99.90;;;;;;4915913;29;20056;-76
2022/12/11 01:55:21;;;;;;;9.93;7.05;;;-2.90;99.90;;;;;;4933713;29;20459;-70
2022/12/11 01:57:51;;;;;;;10.98;6.82;;;-2.70;99.90;;;;;;4954510;28;20043;-69
2022/12/11 02:00:19;;;;;;;8.85;6.45;;;-2.60;99.90;;;;;;4969425;28;20369;-70
2022/12/11 02:02:47;;;;;;;11.32;7.28;;;-2.60;99.90;;;;;;4954662;28;20078;-70
2022/12/11 02:05:15;;;;;;;9.65;6.72;;;-2.50;99.90;;;;;;4953105;29;20057;-70
2022/12/11 02:07:47;;;;;;;12.18;7.35;;;-2.40;99.90;;;;;;4954304;29;20089;-68
2022/12/11 02:10:15;;;;;;;13.13;7.47;;;-2.40;99.90;;;;;;4954661;29;20059;-76
2022/12/11 02:12:55;;;;;;;10.52;6.90;;;-2.40;99.90;;;;;;4951587;29;20062;-77
2022/12/11 02:15:32;;;;;;;12.73;7.00;;;-2.40;99.90;;;;;;4937367;29;20506;-77
2022/12/11 02:18:13;;;;;;;10.48;7.38;;;-2.40;99.90;;;;;;4921434;29;20102;-76
2022/12/11 02:20:49;;;;;;;12.05;6.88;;;-2.40;99.90;;;;;;4954243;29;20055;-76
2022/12/11 02:23:44;;;;;;;9.60;7.13;;;-2.40;99.90;;;;;;4952963;29;20580;-76
2022/12/11 02:26:33;;;;;;;12.43;7.70;;;-2.40;99.90;;;;;;4954213;29;20134;-77
2022/12/11 02:29:07;;;;;;;10.77;7.25;;;-2.40;99.90;;;;;;4954073;29;20110;-70
2022/12/11 02:31:38;;;;;;;10.25;7.28;;;-2.40;99.90;;;;;;4935517;29;20444;-70
2022/12/11 02:34:12;;;;;;;11.23;7.17;;;-2.40;99.90;;;;;;4953945;29;20063;-70
2022/12/11 02:36:45;;;;;;;12.05;7.30;;;-2.40;99.90;;;;;;4936626;29;20106;-71
2022/12/11 02:39:15;;;;;;;12.93;7.68;;;-2.40;99.90;;;;;;4945766;29;20070;-70
2022/12/11 02:41:48;;;;;;;11.35;7.18;;;-2.40;99.90;;;;;;4951243;29;20539;-70
2022/12/11 02:44:21;;;;;;;12.93;7.35;;;-2.30;99.90;;;;;;4953931;28;20069;-71
2022/12/11 02:46:49;;;;;;;10.60;6.55;;;-2.30;99.90;;;;;;4936572;29;20054;-69
2022/12/11 02:49:17;;;;;;;12.57;7.10;;;-2.40;99.90;;;;;;4934707;29;20055;-70
2022/12/11 02:51:45;;;;;;;14.15;7.88;;;-2.40;99.90;;;;;;4936792;29;20051;-71
2022/12/11 02:54:19;;;;;;;15.90;7.80;;;-2.40;99.90;;;;;;4936216;29;20065;-70
2022/12/11 02:56:51;;;;;;;12.20;7.55;;;-2.50;99.90;;;;;;4953454;29;20427;-70
2022/12/11 02:59:26;;;;;;;13.30;7.95;;;-2.50;99.90;;;;;;4950625;29;20043;-68
2022/12/11 03:01:53;;;;;;;10.32;6.63;;;-2.50;99.90;;;;;;4928741;29;20099;-69
2022/12/11 03:04:23;;;;;;;11.77;7.53;;;-2.60;99.90;;;;;;4934381;29;20058;-70
2022/12/11 03:06:54;;;;;;;12.95;7.53;;;-2.60;99.90;;;;;;4932879;29;20603;-70
2022/12/11 03:09:22;;;;;;;8.52;6.90;;;-2.60;99.90;;;;;;4935926;29;20058;-70
2022/12/11 03:11:49;;;;;;;13.48;8.35;;;-2.70;99.90;;;;;;4953577;29;20039;-69
2022/12/11 03:14:17;;;;;;;11.82;7.65;;;-2.70;99.90;;;;;;4953277;29;20066;-70
2022/12/11 03:16:59;;;;;;;10.60;6.95;;;-2.70;99.90;;;;;;4951971;29;20058;-70
2022/12/11 03:19:35;;;;;;;12.68;7.75;;;-2.70;99.90;;;;;;4953241;29;20062;-70
2022/12/11 03:22:11;;;;;;;15.27;7.85;;;-2.70;99.90;;;;;;4953184;28;20056;-70
2022/12/11 03:24:46;;;;;;;10.20;7.28;;;-2.70;99.90;;;;;;4953419;29;20055;-70
2022/12/11 03:27:20;;;;;;;14.85;7.80;;;-2.70;99.90;;;;;;4929581;29;20060;-70
2022/12/11 03:29:55;;;;;;;15.82;9.30;;;-2.70;99.90;;;;;;4915098;29;20595;-76
2022/12/11 03:32:30;;;;;;;12.23;7.32;;;-2.70;99.90;;;;;;4915434;29;20098;-75
2022/12/11 03:35:05;;;;;;;12.30;8.10;;;-2.80;99.90;;;;;;4931792;29;20146;-75
2022/12/11 03:37:37;;;;;;;12.95;8.27;;;-2.80;99.90;;;;;;4952745;29;20075;-76
2022/12/11 03:40:11;;;;;;;12.68;7.90;;;-2.80;99.90;;;;;;4936894;29;20052;-76
2022/12/11 03:42:40;;;;;;;13.02;7.72;;;-2.80;99.90;;;;;;4934000;29;20044;-76
2022/12/11 03:45:09;;;;;;;14.02;8.07;;;-2.80;99.90;;;;;;4932964;29;20057;-75
2022/12/11 03:47:39;;;;;;;12.18;7.80;;;-2.80;99.90;;;;;;4953011;28;20078;-76
2022/12/11 03:50:12;;;;;;;11.80;7.70;;;-2.90;99.90;;;;;;4919760;29;20499;-75
2022/12/11 03:52:42;;;;;;;17.38;8.40;;;-2.90;99.90;;;;;;4951237;29;20079;-74
2022/12/11 03:55:10;;;;;;;15.38;8.20;;;-2.90;99.90;;;;;;4952691;29;20527;-76
2022/12/11 03:57:38;;;;;;;13.82;8.52;;;-3.00;99.90;;;;;;4953631;28;20054;-78
2022/12/11 04:00:12;;;;;;;14.85;8.35;;;-2.90;99.90;;;;;;4942136;29;20066;-77
2022/12/11 04:02:42;;;;;;;10.70;7.57;;;-2.90;99.90;;;;;;4957766;29;20043;-76
2022/12/11 04:05:11;;;;;;;13.20;8.27;;;-3.00;99.90;;;;;;4959158;29;20082;-76
2022/12/11 04:07:39;;;;;;;11.43;7.55;;;-3.00;99.90;;;;;;4959075;28;20047;-76
2022/12/11 04:10:07;;;;;;;13.13;8.13;;;-3.00;99.90;;;;;;4940312;29;20059;-76
2022/12/11 04:12:34;;;;;;;11.52;7.18;;;-3.10;99.90;;;;;;4959030;28;20086;-76
2022/12/11 04:15:01;;;;;;;13.55;8.18;;;-3.10;99.90;;;;;;4957618;28;20431;-75
2022/12/11 04:25:51;;;;;;;13.90;8.35;;;-3.30;99.90;;;;;;4935190;29;20072;-76
2022/12/11 04:28:18;;;;;;;13.35;7.90;;;-3.30;99.90;;;;;;4922804;29;20572;-76
2022/12/11 04:30:49;;;;;;;13.82;7.95;;;-3.30;99.90;;;;;;4958644;28;20153;-77
2022/12/11 04:33:17;;;;;;;14.70;7.78;;;-3.40;99.90;;;;;;4958765;29;20063;-77
2022/12/11 04:35:46;;;;;;;12.13;8.13;;;-3.40;99.90;;;;;;4958706;29;20071;-75
2022/12/11 04:38:13;;;;;;;13.05;8.18;;;-3.50;99.90;;;;;;4940064;29;20075;-69
2022/12/11 04:40:41;;;;;;;13.95;8.48;;;-3.60;99.90;;;;;;4922503;29;20047;-69
2022/12/11 04:43:08;;;;;;;14.90;8.13;;;-3.60;99.90;;;;;;4922429;29;20428;-70
2022/12/11 04:45:35;;;;;;;15.93;8.82;;;-3.60;99.90;;;;;;4939676;29;20051;-71
2022/12/11 04:48:03;;;;;;;15.13;8.65;;;-3.60;99.90;;;;;;4935626;28;20078;-70
2022/12/11 04:50:30;;;;;;;16.95;8.95;;;-3.60;99.90;;;;;;4958571;29;20055;-70
2022/12/11 04:52:59;;;;;;;17.70;9.52;;;-3.60;99.90;;;;;;4958438;29;20099;-71
2022/12/11 04:55:26;;;;;;;16.17;8.60;;;-3.70;99.90;;;;;;4955912;29;20150;-70
2022/12/11 04:57:54;;;;;;;16.35;9.10;;;-3.70;99.90;;;;;;4958520;29;20119;-70
2022/12/11 05:00:21;;;;;;;16.92;8.45;;;-3.80;99.90;;;;;;4958599;28;20210;-70
2022/12/11 05:02:49;;;;;;;13.48;8.30;;;-3.80;99.90;;;;;;4958472;29;20073;-70
2022/12/11 05:05:17;;;;;;;17.83;9.27;;;-3.90;99.90;;;;;;4956840;29;20050;-71
2022/12/11 05:07:44;;;;;;;16.25;8.80;;;-3.90;99.90;;;;;;4958671;28;20115;-70
2022/12/11 05:10:13;;;;;;;19.02;8.63;;;-3.90;99.90;;;;;;4937420;29;20145;-70
2022/12/11 05:12:40;;;;;;;15.73;8.88;;;-3.90;99.90;;;;;;4938175;29;20195;-70
2022/12/11 05:15:09;;;;;;;15.75;9.38;;;-3.90;99.90;;;;;;4953732;29;20051;-69
2022/12/11 05:17:36;;;;;;;14.38;9.05;;;-3.90;99.90;;;;;;4955324;29;20055;-69
2022/12/11 05:20:04;;;;;;;15.90;8.93;;;-4.00;99.90;;;;;;4922049;29;20055;-70
2022/12/11 05:22:32;;;;;;;15.43;8.45;;;-4.00;99.90;;;;;;4936434;29;20512;-69
2022/12/11 05:24:59;;;;;;;14.32;7.82;;;-4.00;99.90;;;;;;4954924;29;20057;-70
2022/12/11 05:27:28;;;;;;;15.30;9.05;;;-4.00;99.90;;;;;;4955411;29;20499;-69
2022/12/11 05:29:56;;;;;;;14.82;9.07;;;-4.00;99.90;;;;;;4954094;29;20118;-69
2022/12/11 05:32:23;;;;;;;15.32;8.98;;;-4.10;99.90;;;;;;4953899;29;20582;-70
2022/12/11 05:34:51;;;;;;;17.27;8.88;;;-4.10;99.90;;;;;;4953949;29;20047;-70
2022/12/11 05:37:19;;;;;;;16.30;8.35;;;-4.10;99.90;;;;;;4955305;29;20058;-70
2022/12/11 05:39:46;;;;;;;18.45;9.60;;;-4.10;99.90;;;;;;4942515;29;20532;-71
2022/12/11 05:42:16;;;;;;;16.15;8.65;;;-4.10;99.90;;;;;;4946705;29;20051;-70
2022/12/11 05:44:45;;;;;;;16.77;8.25;;;-4.20;99.90;;;;;;4969756;28;20074;-76
2022/12/11 05:47:12;;;;;;;14.73;8.80;;;-4.10;99.90;;;;;;4954840;29;20091;-75
2022/12/11 05:49:40;;;;;;;17.00;8.77;;;-4.10;99.90;;;;;;4953187;28;20138;-77
2022/12/11 05:52:07;;;;;;;16.65;9.73;;;-4.10;99.90;;;;;;4937601;29;20142;-75
2022/12/11 05:54:35;;;;;;;17.70;9.75;;;-4.00;99.90;;;;;;4953559;29;20047;-77
2022/12/11 05:57:02;;;;;;;20.80;9.25;;;-4.00;99.90;;;;;;4954857;29;20047;-77
2022/12/11 05:59:29;;;;;;;17.95;10.10;;;-4.00;99.90;;;;;;4953084;29;20061;-76
2022/12/11 06:01:58;;;;;;;16.75;10.00;;;-4.10;99.90;;;;;;4927076;29;20564;-76
2022/12/11 06:04:26;;;;;;;14.90;8.95;;;-4.10;99.90;;;;;;4899490;29;20474;-77
2022/12/11 06:06:55;;;;;;;15.48;9.07;;;-4.10;99.90;;;;;;4899811;29;20083;-77
2022/12/11 06:09:22;;;;;;;15.90;8.52;;;-4.10;99.90;;;;;;4940414;29;20420;-76
2022/12/11 06:11:50;;;;;;;31.55;10.68;;;-4.20;99.90;;;;;;4903977;29;20044;-77
2022/12/11 06:14:17;;;;;;;16.05;9.18;;;-4.10;99.90;;;;;;4919288;29;20048;-76
2022/12/11 06:16:45;;;;;;;16.40;8.68;;;-4.20;99.90;;;;;;4935422;29;20122;-77
2022/12/11 06:19:17;;;;;;;14.88;9.13;;;-4.20;99.90;;;;;;4954723;29;20146;-70
2022/12/11 06:21:47;;;;;;;15.77;8.40;;;-4.20;99.90;;;;;;4954195;28;20082;-77
2022/12/11 06:24:15;;;;;;;22.60;10.02;;;-4.20;99.90;;;;;;4933832;29;20048;-78
2022/12/11 06:26:42;;;;;;;17.55;9.65;;;-4.20;99.90;;;;;;4939547;29;20043;-78
2022/12/11 06:29:10;;;;;;;12.95;7.97;;;-4.20;99.90;;;;;;4909318;29;20078;-77
2022/12/11 06:31:37;;;;;;;16.17;8.32;;;-4.20;99.90;;;;;;4931231;29;20086;-70
2022/12/11 06:34:05;;;;;;;20.02;10.13;;;-4.20;99.90;;;;;;4934587;29;20082;-71
2022/12/11 06:36:34;;;;;;;14.48;8.40;;;-4.20;99.90;;;;;;4906198;29;20052;-70
2022/12/11 06:39:02;;;;;;;15.07;9.18;;;-4.20;99.90;;;;;;4922112;29;20058;-70
2022/12/11 06:41:29;;;;;;;19.25;8.18;;;-4.20;99.90;;;;;;4929611;29;20131;-72
2022/12/11 06:43:57;;;;;;;13.13;8.60;;;-4.30;99.90;;;;;;4898444;29;20509;-70
2022/12/11 06:46:24;;;;;;;15.90;8.52;;;-4.30;99.90;;;;;;4915620;29;20103;-71
2022/12/11 06:48:52;;;;;;;21.02;9.75;;;-4.30;99.90;;;;;;4898791;29;20687;-71
2022/12/11 06:51:22;;;;;;;15.55;8.63;;;-4.30;99.90;;;;;;4915498;29;20044;-72
2022/12/11 06:53:53;;;;;;;15.75;8.38;;;-4.30;99.90;;;;;;4915614;29;20063;-69
2022/12/11 06:56:22;;;;;;;16.20;8.70;;;-4.20;99.90;;;;;;4915473;29;20060;-72
2022/12/11 06:58:50;;;;;;;17.50;9.23;;;-4.20;99.90;;;;;;4915395;29;20059;-71
2022/12/11 07:01:24;;;;;;;16.85;9.13;;;-4.20;99.90;;;;;;4913252;29;20070;-74
2022/12/11 07:03:53;;;;;;;17.15;8.55;;;-4.20;99.90;;;;;;4932736;29;20150;-72
2022/12/11 07:06:21;;;;;;;15.40;8.45;;;-4.20;99.90;;;;;;4929778;29;20055;-76
2022/12/11 07:08:58;;;;;;;16.38;8.73;;;-4.30;99.90;;;;;;4929504;29;20059;-76
2022/12/11 07:11:27;;;;;;;18.83;9.40;;;-4.30;99.90;;;;;;4898351;29;20103;-76
2022/12/11 07:13:54;;;;;;;15.85;8.70;;;-4.40;99.90;;;;;;4915351;29;20151;-74
2022/12/11 07:16:22;;;;;;;17.98;8.50;;;-4.40;99.90;;;;;;4929976;29;20079;-75
2022/12/11 07:18:51;;;;;;;12.95;8.00;;;-4.40;99.90;;;;;;4915375;29;20138;-74
2022/12/11 07:21:21;;;;;;;16.80;8.70;;;-4.40;99.90;;;;;;4913438;29;20065;-74
2022/12/11 07:23:49;;;;;;;15.48;8.90;;;-4.40;99.90;;;;;;4916961;29;20056;-76
2022/12/11 07:26:21;;;;;;;14.15;8.13;;;-4.40;99.90;;;;;;4922849;29;20052;-77
2022/12/11 07:28:49;;;;;;;16.75;9.05;;;-4.40;99.90;;;;;;4930736;29;20546;-75
2022/12/11 07:31:23;;;;;;;16.90;9.60;;;-4.40;99.90;;;;;;4933782;29;20062;-76
2022/12/11 07:33:54;;;;;;;18.33;10.20;;;-4.30;99.90;;;;;;4917095;29;20103;-77
2022/12/11 07:36:22;;;;;;;15.32;9.27;;;-4.30;99.90;;;;;;4918132;29;20047;-77
2022/12/11 07:38:50;;;;;;;15.38;9.32;;;-4.20;99.90;;;;;;4916528;29;20044;-78
2022/12/11 07:41:19;;;;;;;19.38;10.45;;;-4.20;99.90;;;;;;4928534;29;20056;-70
2022/12/11 07:43:55;;;;;;;18.00;9.65;;;-4.20;99.90;;;;;;4898508;29;20558;-76
2022/12/11 07:46:26;;;;;;;17.88;8.75;;;-4.20;99.90;;;;;;4923500;29;20119;-70
2022/12/11 07:48:54;;;;;;;20.77;10.48;;;-4.20;99.90;;;;;;4927453;29;20111;-69
2022/12/11 07:51:25;;;;;;;17.77;9.98;;;-4.20;99.90;;;;;;4903296;29;20051;-69
2022/12/11 07:53:56;;;;;;;17.13;9.88;;;-4.20;99.90;;;;;;4933675;29;20062;-69
2022/12/11 07:56:25;;;;;;;13.70;8.75;;;-4.20;99.90;;;;;;4918313;29;20099;-70
2022/12/11 07:58:53;;;;;;;19.38;10.48;;;-4.10;99.90;;;;;;4905633;29;20051;-70
2022/12/11 08:01:23;;;;;;;16.08;9.23;;;-4.10;99.90;;;;;;4933803;29;20079;-69
2022/12/11 08:03:51;;;;;;;15.45;8.50;;;-4.10;99.90;;;;;;4916027;29;20393;-70
2022/12/11 08:06:20;;;;;;;21.13;9.80;;;-4.00;99.90;;;;;;4898280;29;20440;-69
2022/12/11 08:08:50;;;;;;;13.15;8.35;;;-4.00;99.90;;;;;;4932160;29;20147;-69
2022/12/11 08:11:18;;;;;;;15.18;8.45;;;-3.90;99.90;;;;;;4933592;28;20048;-70
2022/12/11 08:13:46;;;;;;;14.45;8.02;;;-3.90;99.90;;;;;;4933423;29;20135;-70
2022/12/11 08:16:16;;;;;;;22.40;9.05;;;-3.90;99.90;;;;;;4935505;29;20062;-70
2022/12/11 08:18:45;;;;;;;16.65;9.15;;;-3.70;99.90;;;;;;4926312;29;20058;-70
2022/12/11 08:21:15;;;;;;;13.30;8.48;;;-3.70;99.90;;;;;;4933476;29;20099;-71
2022/12/11 08:23:43;;;;;;;14.75;8.48;;;-3.60;99.90;;;;;;4933157;29;20056;-70
2022/12/11 08:26:14;;;;;;;19.00;9.13;;;-3.60;99.90;;;;;;4928034;29;20449;-71
2022/12/11 08:28:42;;;;;;;15.57;8.90;;;-3.50;99.90;;;;;;4934100;29;20051;-70
2022/12/11 08:31:13;;;;;;;18.38;8.55;;;-3.40;99.90;;;;;;4927323;29;20079;-70
2022/12/11 08:33:41;;;;;;;17.33;9.38;;;-3.30;99.90;;;;;;4932288;29;20126;-69
2022/12/11 08:36:12;;;;;;;16.30;9.07;;;-3.30;99.90;;;;;;4928998;29;20043;-71
2022/12/11 08:38:40;;;;;;;15.88;8.98;;;-3.20;99.90;;;;;;4922385;29;20420;-70
2022/12/11 08:41:11;;;;;;;14.25;8.50;;;-3.20;99.90;;;;;;4914743;29;20472;-70
2022/12/11 08:43:39;;;;;;;16.63;9.15;;;-3.10;99.90;;;;;;4933572;29;20051;-70
2022/12/11 08:46:07;;;;;;;13.38;7.97;;;-3.10;99.90;;;;;;4936520;29;20047;-76
2022/12/11 08:48:38;;;;;;;16.17;8.48;;;-3.10;99.90;;;;;;4935752;29;20636;-76
2022/12/11 08:51:10;;;;;;;14.57;9.07;;;-3.10;99.90;;;;;;4933851;29;20122;-75
2022/12/11 08:53:38;;;;;;;14.52;8.38;;;-3.00;99.90;;;;;;4950571;29;20095;-71
2022/12/11 08:56:09;;;;;;;16.20;9.00;;;-3.00;99.90;;;;;;4936016;29;20075;-72
2022/12/11 08:58:37;;;;;;;12.32;7.75;;;-2.90;99.90;;;;;;4936327;29;20047;-70
2022/12/11 09:01:08;;;;;;;13.10;7.65;;;-2.90;99.90;;;;;;4932725;29;20142;-74
2022/12/11 09:03:39;;;;;;;13.75;7.20;;;-2.80;99.90;;;;;;4928996;29;20493;-74
2022/12/11 09:06:09;;;;;;;12.95;8.32;;;-2.90;99.90;;;;;;4934832;29;20101;-74
2022/12/11 09:08:36;;;;;;;12.52;7.78;;;-2.90;99.90;;;;;;4934260;29;20056;-76
2022/12/11 09:11:05;;;;;;;15.75;8.55;;;-2.80;99.90;;;;;;4917996;29;20055;-74
2022/12/11 09:13:33;;;;;;;14.45;8.32;;;-2.80;99.90;;;;;;4907821;29;20043;-75
2022/12/11 09:16:01;;;;;;;13.82;8.25;;;-2.80;99.90;;;;;;4934877;29;20130;-77
2022/12/11 09:18:28;;;;;;;15.07;7.95;;;-2.80;99.90;;;;;;4935538;29;20043;-75
2022/12/11 09:21:03;;;;;;;17.92;9.35;;;-2.70;99.90;;;;;;4929562;29;20054;-75
2022/12/11 09:23:31;;;;;;;14.18;7.45;;;-2.70;99.90;;;;;;4934385;29;20515;-74
2022/12/11 09:25:58;;;;;;;18.08;9.18;;;-2.70;99.90;;;;;;4934882;29;20055;-71
2022/12/11 09:28:26;;;;;;;17.60;10.10;;;-2.70;99.90;;;;;;4934123;29;20083;-73
2022/12/11 09:30:53;;;;;;;16.48;8.52;;;-2.70;99.90;;;;;;4932077;29;20055;-72
2022/12/11 09:33:21;;;;;;;16.98;9.27;;;-2.70;99.90;;;;;;4932081;28;20144;-75
2022/12/11 09:35:58;;;;;;;13.75;8.32;;;-2.60;99.90;;;;;;4905049;29;20143;-75
2022/12/11 09:38:27;;;;;;;14.30;8.85;;;-2.60;99.90;;;;;;4932018;29;20048;-74
2022/12/11 09:40:55;;;;;;;14.10;8.63;;;-2.60;99.90;;;;;;4934378;29;20412;-75
2022/12/11 09:43:37;;;;;;;15.90;9.07;;;-2.50;99.90;;;;;;4948920;28;20055;-77
2022/12/11 09:46:14;;;;;;;18.15;8.65;;;-2.50;99.90;;;;;;4935342;29;20059;-77
2022/12/11 09:48:44;;;;;;;26.20;14.13;;;-2.50;99.90;;;;;;4932865;29;20518;-74
2022/12/11 09:51:19;;;;;;;16.90;8.82;;;-2.50;99.90;;;;;;4930505;29;20079;-70
2022/12/11 09:53:50;;;;;;;19.92;9.05;;;-2.40;99.90;;;;;;4930578;29;20062;-75
2022/12/11 09:56:25;;;;;;;17.73;8.68;;;-2.40;99.90;;;;;;4930266;29;20047;-75
2022/12/11 09:59:09;;;;;;;13.80;8.75;;;-2.30;99.90;;;;;;4927367;29;20108;-73
2022/12/11 10:01:47;;;;;;;15.05;8.73;;;-2.30;99.90;;;;;;4931981;29;20051;-75
2022/12/11 10:04:29;;;;;;;15.80;8.82;;;-2.30;99.90;;;;;;4935468;29;20111;-74
2022/12/11 10:07:09;;;;;;;16.30;8.75;;;-2.30;99.90;;;;;;4932403;28;20435;-71
2022/12/11 10:09:49;;;;;;;18.38;9.65;;;-2.30;99.90;;;;;;4930572;29;20051;-72
2022/12/11 10:12:47;;;;;;;18.05;9.63;;;-2.40;99.90;;;;;;4932496;29;20516;-73
2022/12/11 10:15:33;;;;;;;14.50;8.63;;;-2.30;99.90;;;;;;4932223;29;20417;-79
2022/12/11 10:18:02;;;;;;;23.73;11.55;;;-2.30;99.90;;;;;;4948792;29;20496;-77
2022/12/11 10:20:37;;;;;;;24.75;12.20;;;-2.20;99.90;;;;;;4929684;29;20052;-76
2022/12/11 10:23:08;;;;;;;25.23;12.80;;;-2.30;99.90;;;;;;4920208;29;20044;-69
2022/12/11 10:25:42;;;;;;;28.52;13.20;;;-2.30;99.90;;;;;;4929307;29;20059;-69
2022/12/11 10:28:13;;;;;;;24.92;12.15;;;-2.30;99.90;;;;;;4931711;29;20188;-70
2022/12/11 10:30:48;;;;;;;22.10;12.63;;;-2.30;99.90;;;;;;4932239;29;20119;-70
2022/12/11 10:33:22;;;;;;;22.80;11.40;;;-2.40;99.90;;;;;;4928680;29;20512;-71
2022/12/11 10:35:51;;;;;;;;;;;-2.50;99.90;;;;;;4927562;29;20054;-74
2022/12/11 10:38:26;;;;;;;21.27;11.45;;;-2.50;99.90;;;;;;4937381;29;19959;-69
2022/12/11 10:40:58;;;;;;;16.67;10.13;;;-2.60;99.90;;;;;;4926014;29;20509;-70
2022/12/11 10:43:36;;;;;;;21.70;11.80;;;-2.70;99.90;;;;;;4923494;29;20421;-76
2022/12/11 10:46:17;;;;;;;22.33;10.95;;;-2.70;99.90;;;;;;4924643;29;20070;-75
2022/12/11 10:48:52;;;;;;;22.42;11.32;;;-2.60;99.90;;;;;;4931609;29;20091;-76
2022/12/11 10:51:21;;;;;;;21.23;10.90;;;-2.60;99.90;;;;;;4894191;29;20103;-75
2022/12/11 10:53:54;;;;;;;20.55;10.70;;;-2.60;99.90;;;;;;4944460;29;20066;-76
2022/12/11 10:56:34;;;;;;;19.60;10.95;;;-2.60;99.90;;;;;;4933482;29;20056;-70
2022/12/11 10:59:02;;;;;;;19.33;10.35;;;-2.60;99.90;;;;;;4932858;29;20071;-71
2022/12/11 11:01:33;;;;;;;22.20;10.95;;;-2.70;99.90;;;;;;4933339;29;20460;-74
2022/12/11 11:04:14;;;;;;;19.25;10.40;;;-2.70;99.90;;;;;;4922820;29;20697;-73
2022/12/11 11:06:42;;;;;;;21.45;12.02;;;-2.70;99.90;;;;;;4933865;29;20056;-71
2022/12/11 11:09:30;;;;;;;17.92;10.82;;;-2.80;99.90;;;;;;4933060;29;20043;-74
2022/12/11 11:11:59;;;;;;;19.85;11.23;;;-2.80;99.90;;;;;;4934124;29;20055;-74
2022/12/11 11:14:27;;;;;;;19.40;10.98;;;-2.80;99.90;;;;;;4933149;29;20131;-81
2022/12/11 11:16:57;;;;;;;20.35;11.18;;;-2.80;99.90;;;;;;4934503;29;20056;-79
2022/12/11 11:19:30;;;;;;;19.33;11.20;;;-2.90;99.90;;;;;;4931789;29;20517;-79
2022/12/11 11:22:02;;;;;;;17.33;10.43;;;-2.90;99.90;;;;;;4940768;29;20066;-73
2022/12/11 11:24:35;;;;;;;25.30;11.63;;;-2.90;99.90;;;;;;4946255;29;20059;-73
2022/12/11 11:27:13;;;;;;;19.08;10.80;;;-2.90;99.90;;;;;;4916050;29;20058;-73
2022/12/11 11:29:42;;;;;;;24.77;10.98;;;-3.00;99.90;;;;;;4933349;29;20094;-81
2022/12/11 11:32:22;;;;;;;23.15;10.93;;;-3.00;99.90;;;;;;4933781;29;20052;-80
2022/12/11 11:34:51;;;;;;;20.60;11.55;;;-2.90;99.90;;;;;;4933400;29;20056;-80
2022/12/11 11:37:27;;;;;;;20.73;11.35;;;-3.00;99.90;;;;;;4933565;29;20044;-79
2022/12/11 11:40:01;;;;;;;19.95;10.63;;;-3.00;99.90;;;;;;4932118;29;20051;-80
2022/12/11 11:42:45;;;;;;;20.48;11.23;;;-2.90;99.90;;;;;;4934069;29;20056;-79
2022/12/11 11:45:17;;;;;;;17.90;10.27;;;-2.90;99.90;;;;;;4908481;29;20060;-82
2022/12/11 11:47:56;;;;;;;18.50;9.88;;;-2.90;99.90;;;;;;4931556;29;20070;-81
2022/12/11 11:50:29;;;;;;;21.55;10.75;;;-2.90;99.90;;;;;;4941767;28;20580;-79
2022/12/11 11:53:05;;;;;;;23.10;11.82;;;-3.00;99.90;;;;;;4930396;29;20151;-72
2022/12/11 11:55:47;;;;;;;19.27;10.38;;;-3.00;99.90;;;;;;4927533;29;20065;-75
2022/12/11 11:58:21;;;;;;;22.67;11.60;;;-3.00;99.90;;;;;;4913658;29;20513;-73
2022/12/11 12:00:50;;;;;;;22.15;10.82;;;-3.00;99.90;;;;;;4930409;29;20059;-75
2022/12/11 12:03:20;;;;;;;22.63;11.80;;;-3.00;99.90;;;;;;4924742;29;20044;-83
2022/12/11 12:06:07;;;;;;;23.63;12.05;;;-3.00;99.90;;;;;;4934622;29;20043;-82
2022/12/11 12:08:47;;;;;;;20.83;10.32;;;-3.00;99.90;;;;;;4930794;29;20075;-80
2022/12/11 12:11:27;;;;;;;19.67;10.05;;;-3.10;99.90;;;;;;4929550;29;20066;-76
2022/12/11 12:14:08;;;;;;;21.80;11.32;;;-3.10;99.90;;;;;;4911052;29;20058;-73
2022/12/11 12:16:49;;;;;;;15.98;9.32;;;-3.10;99.90;;;;;;4931024;29;20415;-78
2022/12/11 12:19:41;;;;;;;17.73;9.43;;;-3.10;99.90;;;;;;4917343;29;20055;-80
2022/12/11 12:22:34;;;;;;;20.00;10.43;;;-3.00;99.90;;;;;;4917271;29;20059;-78
2022/12/11 12:25:16;;;;;;;23.58;10.60;;;-3.00;99.90;;;;;;4927676;29;20293;-80
2022/12/11 12:27:53;;;;;;;15.65;9.02;;;-3.10;99.90;;;;;;4919752;29;20062;-81
2022/12/11 12:30:23;;;;;;;20.00;10.15;;;-3.20;99.90;;;;;;4918929;29;20430;-78
2022/12/11 12:33:13;;;;;;;21.42;9.82;;;-3.20;99.90;;;;;;4935988;29;20073;-78
2022/12/11 12:35:50;;;;;;;16.38;9.80;;;-3.20;99.90;;;;;;4929431;29;20537;-81
2022/12/11 12:38:40;;;;;;;17.40;9.52;;;-3.20;99.90;;;;;;4929539;29;20054;-79
2022/12/11 12:41:18;;;;;;;14.38;8.80;;;-3.20;99.90;;;;;;4930381;29;20159;-75
2022/12/11 12:44:10;;;;;;;22.23;9.85;;;-3.30;99.90;;;;;;4932194;29;20051;-75
2022/12/11 12:46:51;;;;;;;18.20;9.73;;;-3.30;99.90;;;;;;4924347;29;20060;-80
2022/12/11 12:49:40;;;;;;;17.05;10.18;;;-3.30;99.90;;;;;;4935711;29;20074;-80
2022/12/11 12:52:16;;;;;;;17.38;8.98;;;-3.30;99.90;;;;;;4931645;29;20148;-75
2022/12/11 12:55:12;;;;;;;18.10;10.18;;;-3.30;99.90;;;;;;4937584;29;20110;-81
2022/12/11 12:57:39;;;;;;;17.38;9.57;;;-3.30;99.90;;;;;;4936118;29;20164;-83
2022/12/11 13:00:11;;;;;;;16.48;8.98;;;-3.30;99.90;;;;;;4935510;29;20055;-75
2022/12/11 13:02:49;;;;;;;18.05;9.50;;;-3.30;99.90;;;;;;4932229;29;20060;-77
2022/12/11 13:05:24;;;;;;;15.98;9.10;;;-3.30;99.90;;;;;;4917798;29;20582;-71
2022/12/11 13:07:56;;;;;;;21.75;9.63;;;-3.30;99.90;;;;;;4936233;29;20075;-71